Time;durP1;ratioP1;P1;durP2;ratioP2;P2;SDS_P1;SDS_P2;PMS_P1;PMS_P2;Temp;Humidity;BMP_temperature;BMP_pressure;BME280_temperature;BME280_humidity;BME280_pressure;Samples;Min_cycle;Max_cycle;Signal;HPM_P1;HPM_P2
2023/07/12 00:00:27;;;;;;;5.28;1.90;;;14.90;99.90;;;;;;5049918;28;20025;-74
2023/07/12 00:02:55;;;;;;;7.38;2.00;;;14.90;99.90;;;;;;5049887;28;20041;-74
2023/07/12 00:05:21;;;;;;;5.47;1.50;;;14.90;99.90;;;;;;5050296;28;20029;-74
2023/07/12 00:07:47;;;;;;;7.50;2.08;;;14.90;99.90;;;;;;5049746;28;20024;-74
2023/07/12 00:10:22;;;;;;;4.13;1.80;;;14.90;99.90;;;;;;5050232;28;20343;-74
2023/07/12 00:12:47;;;;;;;5.35;1.73;;;14.90;99.90;;;;;;5049754;28;20040;-74
2023/07/12 00:15:18;;;;;;;6.10;1.70;;;14.90;99.90;;;;;;5049825;28;20108;-74
2023/07/12 00:17:44;;;;;;;4.63;1.85;;;14.90;99.90;;;;;;5049802;28;20036;-76
2023/07/12 00:20:33;;;;;;;3.97;1.58;;;14.90;99.90;;;;;;5050047;28;20029;-74
2023/07/12 00:22:59;;;;;;;4.78;1.67;;;14.90;99.90;;;;;;5049596;28;20033;-74
2023/07/12 00:25:32;;;;;;;4.72;1.58;;;14.90;99.90;;;;;;5050375;28;20025;-74
2023/07/12 00:27:59;;;;;;;5.63;1.50;;;14.90;99.90;;;;;;5049966;28;20076;-74
2023/07/12 00:30:30;;;;;;;4.07;1.70;;;14.90;99.90;;;;;;5050274;28;20056;-72
2023/07/12 00:33:02;;;;;;;3.33;1.50;;;15.00;99.90;;;;;;5050352;28;20028;-73
2023/07/12 00:35:28;;;;;;;5.05;1.50;;;15.00;99.90;;;;;;5054100;28;20039;-73
2023/07/12 00:37:56;;;;;;;7.40;1.98;;;14.90;99.90;;;;;;5053651;28;20040;-74
2023/07/12 00:40:46;;;;;;;6.50;1.75;;;14.90;99.90;;;;;;5054016;28;20041;-73
2023/07/12 00:43:38;;;;;;;3.25;1.63;;;14.80;99.90;;;;;;5053907;28;20118;-72
2023/07/12 00:46:19;;;;;;;5.10;1.73;;;14.80;99.90;;;;;;5053480;28;20025;-74
2023/07/12 00:48:48;;;;;;;5.85;1.83;;;14.70;99.90;;;;;;5054237;28;20033;-75
2023/07/12 00:51:24;;;;;;;5.85;1.60;;;14.70;99.90;;;;;;5053912;28;20037;-74
2023/07/12 00:53:50;;;;;;;5.00;1.65;;;14.70;99.90;;;;;;5053530;28;20033;-74
2023/07/12 00:56:16;;;;;;;2.85;1.45;;;14.60;99.90;;;;;;5053829;28;20066;-74
2023/07/12 00:58:46;;;;;;;5.72;1.85;;;14.60;99.90;;;;;;5053827;28;20036;-74
2023/07/12 01:01:14;;;;;;;5.47;1.95;;;14.50;99.90;;;;;;5053518;28;20033;-74
2023/07/12 01:03:43;;;;;;;7.15;1.85;;;14.50;99.90;;;;;;5053466;28;20025;-74
2023/07/12 01:06:11;;;;;;;4.95;1.58;;;14.40;99.90;;;;;;5053213;28;20122;-73
2023/07/12 01:08:41;;;;;;;5.75;1.90;;;14.40;99.90;;;;;;5053622;28;20029;-74
2023/07/12 01:11:09;;;;;;;7.32;2.10;;;14.40;99.90;;;;;;5053140;28;20616;-74
2023/07/12 01:13:35;;;;;;;5.22;1.55;;;14.40;99.90;;;;;;5053458;28;20048;-73
2023/07/12 01:16:02;;;;;;;4.93;1.90;;;14.30;99.90;;;;;;5051481;28;20032;-74
2023/07/12 01:18:27;;;;;;;4.47;1.85;;;14.40;99.90;;;;;;5053369;28;20021;-74
2023/07/12 01:21:12;;;;;;;6.18;2.15;;;14.40;99.90;;;;;;5053292;28;20029;-74
2023/07/12 01:23:39;;;;;;;5.15;1.85;;;14.30;99.90;;;;;;5053679;28;20064;-74
2023/07/12 01:26:36;;;;;;;2.95;1.77;;;14.30;99.90;;;;;;5052357;28;20431;-74
2023/07/12 01:29:05;;;;;;;7.57;1.90;;;14.30;99.90;;;;;;5052138;28;20045;-74
2023/07/12 01:31:31;;;;;;;6.15;1.65;;;14.30;99.90;;;;;;5052914;28;20044;-74
2023/07/12 01:33:57;;;;;;;4.30;1.80;;;14.40;99.90;;;;;;5052410;28;20025;-74
2023/07/12 01:36:24;;;;;;;4.10;1.98;;;14.40;99.90;;;;;;5052687;28;20017;-74
2023/07/12 01:38:52;;;;;;;3.83;1.80;;;14.40;99.90;;;;;;5052355;28;20029;-76
2023/07/12 01:41:18;;;;;;;3.40;1.83;;;14.30;99.90;;;;;;5052946;28;20028;-74
2023/07/12 01:43:44;;;;;;;8.13;1.80;;;14.40;99.90;;;;;;5052670;28;20036;-74
2023/07/12 01:46:10;;;;;;;7.43;1.95;;;14.40;99.90;;;;;;5052296;28;20025;-74
2023/07/12 01:48:36;;;;;;;4.72;1.77;;;14.40;99.90;;;;;;5052612;28;20032;-74
2023/07/12 01:51:02;;;;;;;4.75;1.77;;;14.40;99.90;;;;;;5051813;28;20036;-74
2023/07/12 01:53:29;;;;;;;4.18;1.75;;;14.40;99.90;;;;;;5052606;28;20025;-73
2023/07/12 01:55:57;;;;;;;2.60;1.63;;;14.30;99.90;;;;;;5051994;28;20036;-74
2023/07/12 01:58:23;;;;;;;3.72;1.60;;;14.30;99.90;;;;;;5052655;28;20029;-74
2023/07/12 02:00:50;;;;;;;5.95;2.00;;;14.30;99.90;;;;;;5052344;28;20387;-76
2023/07/12 02:03:16;;;;;;;5.28;1.70;;;14.30;99.90;;;;;;5052277;28;20033;-74
2023/07/12 02:05:43;;;;;;;5.10;1.75;;;14.40;99.90;;;;;;5052182;28;20405;-75
2023/07/12 02:08:10;;;;;;;4.88;1.52;;;14.30;99.90;;;;;;5051574;28;20029;-74
2023/07/12 02:10:35;;;;;;;3.00;1.80;;;14.40;99.90;;;;;;5052317;28;20532;-74
2023/07/12 02:13:01;;;;;;;5.78;1.40;;;14.40;99.90;;;;;;5051595;28;20033;-74
2023/07/12 02:15:27;;;;;;;4.57;1.60;;;14.40;99.90;;;;;;5052027;28;20108;-74
2023/07/12 02:17:53;;;;;;;4.03;1.98;;;14.50;99.90;;;;;;5051303;28;20086;-74
2023/07/12 02:20:20;;;;;;;2.92;1.50;;;14.50;99.90;;;;;;5051906;28;20111;-74
2023/07/12 02:22:47;;;;;;;7.55;1.90;;;14.50;99.90;;;;;;5052360;28;20033;-74
2023/07/12 02:25:14;;;;;;;5.18;1.60;;;14.50;99.90;;;;;;5051519;28;20025;-74
2023/07/12 02:27:40;;;;;;;3.72;1.70;;;14.30;99.90;;;;;;5052068;28;20488;-74
2023/07/12 02:30:12;;;;;;;3.70;1.70;;;14.30;99.90;;;;;;5051396;28;20461;-74
2023/07/12 02:32:38;;;;;;;5.20;1.73;;;14.30;99.90;;;;;;5051925;28;20044;-73
2023/07/12 02:35:04;;;;;;;4.30;1.85;;;14.20;99.90;;;;;;5051242;28;20254;-73
2023/07/12 02:37:30;;;;;;;3.15;1.83;;;14.20;99.90;;;;;;5051959;28;20021;-73
2023/07/12 02:39:56;;;;;;;5.18;1.52;;;14.10;99.90;;;;;;5051122;28;20025;-73
2023/07/12 02:42:22;;;;;;;4.63;1.67;;;14.10;99.90;;;;;;5051786;28;20338;-73
2023/07/12 02:44:47;;;;;;;1.90;1.50;;;14.10;99.90;;;;;;5051737;28;20029;-72
2023/07/12 02:47:13;;;;;;;4.28;1.73;;;14.00;99.90;;;;;;5051096;28;20036;-73
2023/07/12 02:49:39;;;;;;;5.85;1.77;;;14.00;99.90;;;;;;5051522;28;20021;-74
2023/07/12 02:52:07;;;;;;;2.83;1.50;;;14.00;99.90;;;;;;5050498;28;20037;-74
2023/07/12 02:54:33;;;;;;;4.00;1.90;;;14.00;99.90;;;;;;5050950;28;20461;-73
2023/07/12 02:57:00;;;;;;;1.95;1.50;;;14.00;99.90;;;;;;5049348;28;20442;-74
2023/07/12 02:59:26;;;;;;;3.03;1.77;;;14.00;99.90;;;;;;5051419;28;20029;-73
2023/07/12 03:01:52;;;;;;;2.80;1.83;;;14.00;99.90;;;;;;5051160;28;20033;-73
2023/07/12 03:04:19;;;;;;;4.57;1.80;;;14.00;99.90;;;;;;5050999;28;20025;-74
2023/07/12 03:06:45;;;;;;;2.70;1.83;;;14.00;99.90;;;;;;5050965;28;20488;-74
2023/07/12 03:09:11;;;;;;;3.38;1.77;;;14.00;99.90;;;;;;5051047;28;20061;-74
2023/07/12 03:11:37;;;;;;;3.55;1.90;;;14.00;99.90;;;;;;5050798;28;20037;-74
2023/07/12 03:14:03;;;;;;;3.55;1.80;;;14.00;99.90;;;;;;5050491;28;20033;-74
2023/07/12 03:16:30;;;;;;;3.13;1.48;;;14.00;99.90;;;;;;5051388;28;20025;-74
2023/07/12 03:18:56;;;;;;;3.90;1.80;;;14.00;99.90;;;;;;5050463;28;20052;-77
2023/07/12 03:21:22;;;;;;;3.55;1.88;;;14.00;99.90;;;;;;5051147;28;20064;-73
2023/07/12 03:23:48;;;;;;;6.78;2.05;;;14.10;99.90;;;;;;5049915;28;20394;-73
2023/07/12 03:26:14;;;;;;;5.97;1.70;;;14.10;99.90;;;;;;5050468;28;20032;-73
2023/07/12 03:28:40;;;;;;;5.85;2.08;;;14.10;99.90;;;;;;5050672;28;20476;-73
2023/07/12 03:31:09;;;;;;;4.72;1.75;;;14.10;99.90;;;;;;5049988;28;20072;-74
2023/07/12 03:33:36;;;;;;;6.57;2.05;;;14.10;99.90;;;;;;5050828;28;20057;-73
2023/07/12 03:36:02;;;;;;;4.18;2.05;;;14.20;99.90;;;;;;5050031;28;20025;-74
2023/07/12 03:38:30;;;;;;;5.38;1.85;;;14.30;99.90;;;;;;5050534;28;20104;-73
2023/07/12 03:40:58;;;;;;;5.35;1.92;;;14.20;99.90;;;;;;5050818;28;20075;-76
2023/07/12 03:43:24;;;;;;;4.22;1.90;;;14.20;99.90;;;;;;5050695;28;20033;-73
2023/07/12 03:45:51;;;;;;;4.82;2.28;;;14.20;99.90;;;;;;5051067;28;20104;-74
2023/07/12 03:48:16;;;;;;;4.95;1.90;;;14.20;99.90;;;;;;5050381;28;20252;-74
2023/07/12 03:50:43;;;;;;;8.48;2.17;;;14.20;99.90;;;;;;5051264;28;20020;-74
2023/07/12 03:53:09;;;;;;;3.90;1.85;;;14.20;99.90;;;;;;5048744;28;20471;-74
2023/07/12 03:55:43;;;;;;;4.05;1.77;;;14.30;99.90;;;;;;5050827;28;20045;-73
2023/07/12 03:58:12;;;;;;;5.53;2.13;;;14.30;99.90;;;;;;5049994;28;20040;-74
2023/07/12 04:00:45;;;;;;;7.32;2.25;;;14.30;99.90;;;;;;5048983;28;20021;-73
2023/07/12 04:03:12;;;;;;;6.63;1.98;;;14.30;99.90;;;;;;5049677;28;20097;-75
2023/07/12 04:05:39;;;;;;;5.40;1.98;;;14.30;99.90;;;;;;5049918;28;20110;-73
2023/07/12 04:08:05;;;;;;;5.30;2.30;;;14.40;99.90;;;;;;5047985;28;20359;-73
2023/07/12 04:10:31;;;;;;;5.35;1.88;;;14.40;99.90;;;;;;5048702;28;20033;-73
2023/07/12 04:12:57;;;;;;;5.32;2.17;;;14.40;99.90;;;;;;5048453;28;20029;-73
2023/07/12 04:15:23;;;;;;;3.28;1.77;;;14.40;99.90;;;;;;5049577;28;20025;-73
2023/07/12 04:17:49;;;;;;;5.18;2.17;;;14.40;99.90;;;;;;5049836;28;20447;-73
2023/07/12 04:20:15;;;;;;;6.78;2.10;;;14.40;99.90;;;;;;5049599;28;20049;-73
2023/07/12 04:22:41;;;;;;;6.25;2.30;;;14.50;99.90;;;;;;5050164;28;20441;-74
2023/07/12 04:25:08;;;;;;;5.75;2.33;;;14.50;99.90;;;;;;5049556;28;20390;-73
2023/07/12 04:27:37;;;;;;;4.38;2.75;;;14.50;99.90;;;;;;5049941;28;20457;-73
2023/07/12 04:30:05;;;;;;;7.43;3.05;;;14.40;99.90;;;;;;5049337;28;20080;-74
2023/07/12 04:32:31;;;;;;;6.95;3.20;;;14.50;99.90;;;;;;5050305;28;20102;-74
2023/07/12 04:34:56;;;;;;;6.97;2.95;;;14.40;99.90;;;;;;5050169;28;20025;-73
2023/07/12 04:37:22;;;;;;;9.88;2.65;;;14.40;99.90;;;;;;5049491;28;20051;-73
2023/07/12 04:39:48;;;;;;;5.15;3.17;;;14.40;99.90;;;;;;5049988;28;20330;-74
2023/07/12 04:42:14;;;;;;;6.57;3.28;;;14.40;99.90;;;;;;5049519;28;20111;-73
2023/07/12 04:44:40;;;;;;;5.55;2.95;;;14.50;99.90;;;;;;5050074;28;20358;-74
2023/07/12 04:47:07;;;;;;;6.70;2.70;;;14.40;99.90;;;;;;5049568;28;20032;-75
2023/07/12 04:49:33;;;;;;;5.70;3.25;;;14.50;99.90;;;;;;5049446;28;20410;-74
2023/07/12 04:51:59;;;;;;;5.05;2.60;;;14.50;99.90;;;;;;5049942;28;20033;-73
2023/07/12 04:54:25;;;;;;;6.63;3.10;;;14.40;99.90;;;;;;5049265;28;20123;-74
2023/07/12 04:56:51;;;;;;;4.70;2.85;;;14.50;99.90;;;;;;5049649;28;20455;-80
2023/07/12 04:59:18;;;;;;;7.90;3.85;;;14.40;99.90;;;;;;5048862;28;20443;-77
2023/07/12 05:01:45;;;;;;;4.90;2.83;;;14.40;99.90;;;;;;5049693;28;20032;-78
2023/07/12 05:04:11;;;;;;;10.02;3.70;;;14.40;99.90;;;;;;5049284;28;20028;-78
2023/07/12 05:06:37;;;;;;;5.50;3.60;;;14.30;99.90;;;;;;5049996;28;20040;-75
2023/07/12 05:09:03;;;;;;;7.32;3.33;;;14.30;99.90;;;;;;5049261;28;20025;-83
2023/07/12 05:11:30;;;;;;;7.82;3.40;;;14.30;99.90;;;;;;5049699;28;20036;-75
2023/07/12 05:13:55;;;;;;;6.78;4.25;;;14.30;99.90;;;;;;5048201;28;20029;-77
2023/07/12 05:16:21;;;;;;;5.88;3.70;;;14.20;99.90;;;;;;5048834;28;20031;-76
2023/07/12 05:18:47;;;;;;;7.18;3.67;;;14.30;99.90;;;;;;5050780;28;20040;-75
2023/07/12 05:21:13;;;;;;;6.03;4.00;;;14.30;99.90;;;;;;5052596;28;20458;-75
2023/07/12 05:23:39;;;;;;;7.85;4.30;;;14.30;99.90;;;;;;5052859;28;20112;-73
2023/07/12 05:26:06;;;;;;;6.78;3.78;;;14.30;99.90;;;;;;5052980;28;20477;-76
2023/07/12 05:28:32;;;;;;;7.22;3.25;;;14.20;99.90;;;;;;5052554;28;20021;-75
2023/07/12 05:31:04;;;;;;;11.82;4.18;;;14.30;99.90;;;;;;5052947;28;20098;-75
2023/07/12 05:33:30;;;;;;;5.05;3.70;;;14.30;99.90;;;;;;5051339;28;20120;-74
2023/07/12 05:35:55;;;;;;;7.28;3.90;;;14.30;99.90;;;;;;5051286;28;20114;-74
2023/07/12 05:38:21;;;;;;;7.38;4.38;;;14.30;99.90;;;;;;5051800;28;20499;-75
2023/07/12 05:40:47;;;;;;;7.05;3.90;;;14.30;99.90;;;;;;5052615;28;20416;-74
2023/07/12 05:43:14;;;;;;;7.55;3.80;;;14.40;99.90;;;;;;5052189;28;20025;-74
2023/07/12 05:45:39;;;;;;;6.50;4.03;;;14.30;99.90;;;;;;5052326;28;20051;-73
2023/07/12 05:48:05;;;;;;;6.47;3.70;;;14.30;99.90;;;;;;5052579;28;20622;-77
2023/07/12 05:50:31;;;;;;;6.88;3.35;;;14.30;99.90;;;;;;5052128;28;20037;-75
2023/07/12 05:52:57;;;;;;;8.13;3.75;;;14.30;99.90;;;;;;5051975;28;20558;-74
2023/07/12 05:55:23;;;;;;;8.90;4.20;;;14.40;99.90;;;;;;5051519;28;20108;-75
2023/07/12 05:57:49;;;;;;;8.05;4.05;;;14.40;99.90;;;;;;5052570;28;20366;-76
2023/07/12 06:00:16;;;;;;;7.80;3.63;;;14.40;99.90;;;;;;5051749;28;20122;-75
2023/07/12 06:02:42;;;;;;;7.95;3.85;;;14.40;99.90;;;;;;5052455;28;20396;-73
2023/07/12 06:05:07;;;;;;;8.05;3.95;;;14.40;99.90;;;;;;5050290;28;20104;-76
2023/07/12 06:07:34;;;;;;;8.00;3.88;;;14.40;99.90;;;;;;5052548;28;20114;-73
2023/07/12 06:09:59;;;;;;;5.93;4.10;;;14.50;99.90;;;;;;5052275;28;20489;-74
2023/07/12 06:12:26;;;;;;;7.60;3.72;;;14.60;99.90;;;;;;5051577;28;20033;-74
2023/07/12 06:14:52;;;;;;;8.43;3.80;;;14.60;99.90;;;;;;5051869;28;20021;-74
2023/07/12 06:17:17;;;;;;;9.07;4.22;;;14.60;99.90;;;;;;5051605;28;20039;-74
2023/07/12 06:19:44;;;;;;;7.28;3.90;;;14.60;99.90;;;;;;5051963;28;20043;-74
2023/07/12 06:22:10;;;;;;;14.10;4.20;;;14.70;99.90;;;;;;5051641;28;20029;-74
2023/07/12 06:24:36;;;;;;;8.00;3.90;;;14.70;99.90;;;;;;5051740;28;20025;-73
2023/07/12 06:27:02;;;;;;;5.38;3.97;;;14.80;99.90;;;;;;5052061;28;20430;-73
2023/07/12 06:29:29;;;;;;;4.50;3.42;;;14.80;99.90;;;;;;5050579;28;20045;-74
2023/07/12 06:31:55;;;;;;;6.70;3.60;;;14.90;99.90;;;;;;5051319;28;20036;-73
2023/07/12 06:34:21;;;;;;;8.32;3.95;;;14.90;99.90;;;;;;5051216;28;20021;-73
2023/07/12 06:36:47;;;;;;;7.20;2.85;;;15.00;99.90;;;;;;5050035;28;20028;-73
2023/07/12 06:39:13;;;;;;;7.95;3.90;;;15.00;99.90;;;;;;5051093;28;20024;-74
2023/07/12 06:41:38;;;;;;;5.95;3.10;;;15.00;99.90;;;;;;5051288;28;20466;-73
2023/07/12 06:44:04;;;;;;;5.30;3.33;;;15.00;99.90;;;;;;5050950;28;20057;-73
2023/07/12 06:46:30;;;;;;;8.55;2.78;;;15.00;99.90;;;;;;5050927;28;20029;-74
2023/07/12 06:48:56;;;;;;;7.18;2.95;;;15.00;99.90;;;;;;5051269;28;20108;-73
2023/07/12 06:51:22;;;;;;;5.88;2.95;;;15.00;99.90;;;;;;5050900;28;20036;-72
2023/07/12 06:53:48;;;;;;;9.45;3.45;;;15.10;99.90;;;;;;5051393;28;20458;-72
2023/07/12 06:56:14;;;;;;;6.68;2.63;;;15.10;99.90;;;;;;5050786;28;20040;-73
2023/07/12 06:58:39;;;;;;;7.50;2.80;;;15.10;99.90;;;;;;5051616;28;20029;-72
2023/07/12 07:01:09;;;;;;;7.90;3.03;;;15.10;99.90;;;;;;5050858;28;20031;-72
2023/07/12 07:03:35;;;;;;;8.88;2.80;;;15.20;99.90;;;;;;5050833;28;20025;-71
2023/07/12 07:06:01;;;;;;;5.25;2.42;;;15.20;99.90;;;;;;5050905;28;20086;-72
2023/07/12 07:08:27;;;;;;;6.82;2.75;;;15.20;99.90;;;;;;5050480;28;20551;-72
2023/07/12 07:10:53;;;;;;;7.85;3.28;;;15.30;99.90;;;;;;5050845;28;20127;-72
2023/07/12 07:13:23;;;;;;;7.05;3.10;;;15.30;99.90;;;;;;5050306;28;20371;-72
2023/07/12 07:15:49;;;;;;;4.53;2.65;;;15.30;99.90;;;;;;5050666;28;20049;-72
2023/07/12 07:18:15;;;;;;;7.53;2.95;;;15.30;99.90;;;;;;5050485;28;20505;-74
2023/07/12 07:20:41;;;;;;;6.68;2.70;;;15.20;99.90;;;;;;5050740;28;20176;-73
2023/07/12 07:23:08;;;;;;;5.68;2.72;;;15.30;99.90;;;;;;5050715;28;20501;-73
2023/07/12 07:25:33;;;;;;;10.80;2.85;;;15.30;99.90;;;;;;5048792;28;20439;-72
2023/07/12 07:27:59;;;;;;;6.32;2.40;;;15.20;99.90;;;;;;5049511;28;20221;-73
2023/07/12 07:30:25;;;;;;;6.30;2.28;;;15.30;99.90;;;;;;5050290;28;20588;-73
2023/07/12 07:32:53;;;;;;;11.23;2.40;;;15.30;99.90;;;;;;5050300;28;20052;-71
2023/07/12 07:35:20;;;;;;;5.03;2.10;;;15.30;99.90;;;;;;5049882;28;20033;-73
2023/07/12 07:37:48;;;;;;;12.00;2.85;;;15.30;99.90;;;;;;5050107;28;20033;-73
2023/07/12 07:40:14;;;;;;;10.88;2.65;;;15.30;99.90;;;;;;5049764;28;20047;-75
2023/07/12 07:42:40;;;;;;;7.75;2.50;;;15.30;99.90;;;;;;5049767;28;20397;-72
2023/07/12 07:45:09;;;;;;;7.30;2.22;;;15.20;99.90;;;;;;5050418;28;20036;-72
2023/07/12 07:47:35;;;;;;;10.13;3.38;;;15.20;99.90;;;;;;5049719;28;20067;-73
2023/07/12 07:50:01;;;;;;;7.88;2.17;;;15.10;99.90;;;;;;5050253;28;20467;-72
2023/07/12 07:52:27;;;;;;;6.13;2.45;;;15.20;99.90;;;;;;5049802;28;20048;-73
2023/07/12 07:54:53;;;;;;;6.07;2.45;;;15.20;99.90;;;;;;5049854;28;20029;-72
2023/07/12 07:57:20;;;;;;;10.32;2.33;;;15.20;99.90;;;;;;5049540;28;20119;-73
2023/07/12 07:59:46;;;;;;;5.72;2.10;;;15.30;99.90;;;;;;5050170;28;20033;-72
2023/07/12 08:02:11;;;;;;;8.35;2.00;;;15.30;99.90;;;;;;5050072;28;20036;-73
2023/07/12 08:04:37;;;;;;;6.97;2.25;;;15.30;99.90;;;;;;5050006;28;20021;-72
2023/07/12 08:07:05;;;;;;;9.73;3.83;;;15.30;99.90;;;;;;5050292;28;20059;-72
2023/07/12 08:09:33;;;;;;;5.50;2.35;;;15.30;99.90;;;;;;5049449;28;20116;-73
2023/07/12 08:11:59;;;;;;;9.52;1.95;;;15.30;99.90;;;;;;5030098;28;20469;-72
2023/07/12 08:14:25;;;;;;;6.65;1.85;;;15.30;99.90;;;;;;5029484;28;20112;-72
2023/07/12 08:16:51;;;;;;;10.05;2.17;;;15.30;99.90;;;;;;5030274;28;20057;-72
2023/07/12 08:19:18;;;;;;;7.68;2.40;;;15.30;99.90;;;;;;5029862;28;20062;-73
2023/07/12 08:21:44;;;;;;;6.43;1.98;;;15.50;99.90;;;;;;5030111;28;20029;-72
2023/07/12 08:24:10;;;;;;;6.63;2.17;;;15.50;99.90;;;;;;5030737;28;20025;-72
2023/07/12 08:26:36;;;;;;;7.70;2.00;;;15.70;99.90;;;;;;5029429;28;20018;-72
2023/07/12 08:29:02;;;;;;;8.40;2.20;;;15.80;99.90;;;;;;5029995;28;20091;-72
2023/07/12 08:31:28;;;;;;;6.00;1.90;;;15.90;99.90;;;;;;5028048;28;20072;-72
2023/07/12 08:33:55;;;;;;;6.57;1.75;;;15.90;99.90;;;;;;5030187;28;20077;-72
2023/07/12 08:36:21;;;;;;;7.90;1.77;;;15.90;99.90;;;;;;5029660;28;20030;-72
2023/07/12 08:38:47;;;;;;;6.05;1.60;;;15.80;99.90;;;;;;5030484;28;20025;-72
2023/07/12 08:41:18;;;;;;;6.50;1.67;;;15.70;99.90;;;;;;5030582;28;20370;-73
2023/07/12 08:43:44;;;;;;;12.25;1.75;;;15.70;99.90;;;;;;5029004;28;20135;-72
2023/07/12 08:46:24;;;;;;;5.55;1.65;;;15.70;99.90;;;;;;5030529;28;20155;-72
2023/07/12 08:48:57;;;;;;;4.10;1.52;;;15.80;99.90;;;;;;5030480;28;20028;-73
2023/07/12 08:51:39;;;;;;;6.35;1.90;;;15.80;99.90;;;;;;5029526;28;20036;-73
2023/07/12 08:54:05;;;;;;;3.65;1.65;;;15.90;99.90;;;;;;5032413;28;20477;-73
2023/07/12 08:56:31;;;;;;;5.70;1.27;;;16.00;99.90;;;;;;5033713;28;20033;-73
2023/07/12 08:58:57;;;;;;;5.85;1.63;;;16.00;99.90;;;;;;5034490;28;20466;-73
2023/07/12 09:01:45;;;;;;;6.07;1.80;;;16.00;99.90;;;;;;5033702;28;20030;-73
2023/07/12 09:04:31;;;;;;;4.03;2.00;;;16.10;99.90;;;;;;5034212;28;20029;-72
2023/07/12 09:07:04;;;;;;;7.22;1.38;;;16.10;99.90;;;;;;5034003;28;20365;-73
2023/07/12 09:09:36;;;;;;;7.95;1.90;;;16.00;99.90;;;;;;5051751;28;20100;-73
2023/07/12 09:12:06;;;;;;;3.75;1.77;;;16.00;99.90;;;;;;5053129;28;20123;-73
2023/07/12 09:14:35;;;;;;;5.55;1.52;;;16.00;99.90;;;;;;5053055;28;20029;-73
2023/07/12 09:17:02;;;;;;;4.82;1.45;;;16.10;99.90;;;;;;5035400;28;20049;-73
2023/07/12 09:19:36;;;;;;;3.30;1.42;;;16.10;99.90;;;;;;5052964;28;20033;-74
2023/07/12 09:22:13;;;;;;;7.25;1.77;;;16.20;99.90;;;;;;5053880;28;20052;-74
2023/07/12 09:24:43;;;;;;;4.55;1.52;;;16.30;99.90;;;;;;5052930;28;20036;-73
2023/07/12 09:27:23;;;;;;;4.55;1.40;;;16.30;99.90;;;;;;5053207;28;20033;-72
2023/07/12 09:29:58;;;;;;;7.28;1.85;;;16.50;99.90;;;;;;5052982;28;20103;-73
2023/07/12 09:32:31;;;;;;;3.80;1.30;;;16.50;99.90;;;;;;5052189;28;20091;-73
2023/07/12 09:34:58;;;;;;;3.42;1.10;;;16.50;99.90;;;;;;5053002;28;20041;-73
2023/07/12 09:37:24;;;;;;;2.83;1.45;;;16.50;99.90;;;;;;5052088;28;20017;-73
2023/07/12 09:40:01;;;;;;;4.18;1.40;;;16.60;99.90;;;;;;5052616;28;20083;-74
2023/07/12 09:42:29;;;;;;;7.57;1.60;;;16.70;99.90;;;;;;5052248;28;20036;-74
2023/07/12 09:44:57;;;;;;;4.93;1.33;;;16.70;99.90;;;;;;5053116;28;20107;-74
2023/07/12 09:47:55;;;;;;;4.88;1.40;;;16.90;99.90;;;;;;5052019;28;20526;-74
2023/07/12 09:50:50;;;;;;;5.68;1.40;;;17.10;99.90;;;;;;5052378;28;20061;-76
2023/07/12 09:53:37;;;;;;;4.43;1.55;;;17.30;99.90;;;;;;5048381;28;20147;-73
2023/07/12 09:56:24;;;;;;;4.55;1.10;;;17.40;99.90;;;;;;5052306;28;20528;-73
2023/07/12 09:59:03;;;;;;;7.90;1.50;;;17.50;99.90;;;;;;5052159;28;20098;-73
2023/07/12 10:02:20;;;;;;;2.92;1.00;;;17.50;99.90;;;;;;5051491;28;20036;-73
2023/07/12 10:04:56;;;;;;;4.85;1.35;;;17.60;99.90;;;;;;5033523;28;20041;-73
2023/07/12 10:07:43;;;;;;;4.75;1.20;;;17.60;99.90;;;;;;5051851;28;20044;-76
2023/07/12 10:10:24;;;;;;;4.97;1.23;;;17.70;99.90;;;;;;5051492;28;20029;-73
2023/07/12 10:13:02;;;;;;;5.15;1.60;;;17.90;99.90;;;;;;5051829;28;20037;-73
2023/07/12 10:15:33;;;;;;;5.75;1.40;;;18.30;99.90;;;;;;5050517;28;20546;-73
2023/07/12 10:17:58;;;;;;;7.65;1.20;;;18.50;99.90;;;;;;5051329;28;20096;-74
2023/07/12 10:20:25;;;;;;;4.22;1.20;;;18.60;99.90;;;;;;5050750;28;20117;-74
2023/07/12 10:22:53;;;;;;;5.43;1.10;;;18.60;99.90;;;;;;5051483;28;20043;-73
2023/07/12 10:25:29;;;;;;;4.05;1.55;;;18.50;99.90;;;;;;5051105;28;20207;-73
2023/07/12 10:28:12;;;;;;;3.45;1.33;;;18.40;99.90;;;;;;5051355;28;20025;-73
2023/07/12 10:30:39;;;;;;;2.40;0.80;;;18.30;99.90;;;;;;5049311;28;20474;-73
2023/07/12 10:33:13;;;;;;;3.83;0.90;;;18.20;99.90;;;;;;5051201;28;20029;-73
2023/07/12 10:36:03;;;;;;;2.78;0.80;;;18.20;99.90;;;;;;5051617;28;20033;-73
2023/07/12 10:38:28;;;;;;;4.32;0.90;;;18.10;99.90;;;;;;5045114;28;20037;-73
2023/07/12 10:41:09;;;;;;;1.73;0.82;;;18.20;99.90;;;;;;5051057;28;20036;-73
2023/07/12 10:43:45;;;;;;;2.10;0.77;;;18.20;99.90;;;;;;5050113;28;20021;-74
2023/07/12 10:46:33;;;;;;;2.67;1.10;;;18.30;99.90;;;;;;5050970;28;20514;-73
2023/07/12 10:49:03;;;;;;;6.38;1.23;;;18.20;99.90;;;;;;5050744;28;20037;-74
2023/07/12 10:51:38;;;;;;;1.67;0.75;;;18.10;99.90;;;;;;5049929;28;20425;-72
2023/07/12 10:54:21;;;;;;;4.47;1.45;;;18.00;99.90;;;;;;5050899;28;20017;-73
2023/07/12 10:56:52;;;;;;;3.75;1.23;;;18.00;99.90;;;;;;5050240;28;20133;-73
2023/07/12 10:59:30;;;;;;;3.53;0.70;;;18.00;99.90;;;;;;5050724;28;20028;-73
2023/07/12 11:02:18;;;;;;;3.50;1.08;;;18.10;99.90;;;;;;5050687;28;20051;-74
2023/07/12 11:04:49;;;;;;;3.58;1.65;;;18.20;99.90;;;;;;5050073;28;20021;-73
2023/07/12 11:07:14;;;;;;;3.60;1.20;;;18.30;99.90;;;;;;5049215;28;20079;-73
2023/07/12 11:09:43;;;;;;;2.50;1.05;;;18.30;99.90;;;;;;5049626;28;20532;-73
2023/07/12 11:12:14;;;;;;;1.48;0.60;;;18.30;99.90;;;;;;5050495;28;20124;-74
2023/07/12 11:14:44;;;;;;;3.00;0.70;;;18.30;99.90;;;;;;5049899;28;20029;-73
2023/07/12 11:17:28;;;;;;;2.70;1.10;;;18.20;99.90;;;;;;5049530;28;20086;-73
2023/07/12 11:20:23;;;;;;;3.72;0.82;;;18.30;99.90;;;;;;5050279;28;20021;-72
2023/07/12 11:22:51;;;;;;;1.92;0.73;;;18.50;99.90;;;;;;5050220;28;20047;-72
2023/07/12 11:25:44;;;;;;;1.75;0.90;;;18.80;99.90;;;;;;5050451;28;20039;-73
2023/07/12 11:28:48;;;;;;;0.98;0.60;;;18.90;99.90;;;;;;5031598;28;20041;-72
2023/07/12 11:31:26;;;;;;;2.42;0.70;;;18.80;99.90;;;;;;5008179;28;20069;-73
2023/07/12 11:34:03;;;;;;;4.07;0.80;;;18.80;99.90;;;;;;5008085;28;20049;-72
2023/07/12 11:36:34;;;;;;;2.25;0.88;;;18.80;99.90;;;;;;4990973;28;20121;-73
2023/07/12 11:39:01;;;;;;;1.40;0.70;;;18.80;99.90;;;;;;5007768;28;20033;-73
2023/07/12 11:41:29;;;;;;;2.58;0.90;;;18.80;99.90;;;;;;5006885;28;20030;-73
2023/07/12 11:44:05;;;;;;;4.07;0.90;;;18.90;99.90;;;;;;5007487;28;20030;-73
2023/07/12 11:46:38;;;;;;;6.20;1.20;;;18.90;99.90;;;;;;5007153;28;20169;-73
2023/07/12 11:49:15;;;;;;;3.53;1.02;;;19.00;99.90;;;;;;5008115;28;20045;-73
2023/07/12 11:51:44;;;;;;;3.30;1.00;;;19.20;99.90;;;;;;5007742;28;20432;-72
2023/07/12 11:54:27;;;;;;;5.47;1.00;;;19.10;99.90;;;;;;5007823;28;20041;-72
2023/07/12 11:56:58;;;;;;;4.05;1.20;;;19.00;99.90;;;;;;5008192;28;20029;-71
2023/07/12 11:59:27;;;;;;;1.85;0.70;;;19.00;99.90;;;;;;5007767;28;20040;-72
2023/07/12 12:01:53;;;;;;;1.15;0.90;;;19.00;99.90;;;;;;5027803;28;20047;-72
2023/07/12 12:04:30;;;;;;;1.55;0.80;;;19.00;99.90;;;;;;5049998;28;20048;-72
2023/07/12 12:07:02;;;;;;;1.27;0.45;;;19.00;99.90;;;;;;5050195;28;20035;-73
2023/07/12 12:09:35;;;;;;;1.05;0.57;;;18.80;99.90;;;;;;5050257;28;20027;-76
2023/07/12 12:12:02;;;;;;;1.50;0.85;;;18.70;99.90;;;;;;5050324;28;20048;-73
2023/07/12 12:14:31;;;;;;;1.05;0.55;;;18.80;99.90;;;;;;5049600;28;20140;-75
2023/07/12 12:17:05;;;;;;;1.13;0.60;;;19.00;99.90;;;;;;5050284;28;20087;-72
2023/07/12 12:19:31;;;;;;;4.15;0.50;;;19.30;99.90;;;;;;5049423;28;20087;-74
2023/07/12 12:22:17;;;;;;;2.65;0.68;;;19.40;99.90;;;;;;5049938;28;20418;-73
2023/07/12 12:24:53;;;;;;;2.47;0.68;;;19.70;99.90;;;;;;5049598;28;20545;-73
2023/07/12 12:27:21;;;;;;;1.48;0.68;;;19.80;99.90;;;;;;5050215;28;20056;-72
2023/07/12 12:29:49;;;;;;;1.83;0.32;;;20.00;99.90;;;;;;5052673;28;20723;-72
2023/07/12 12:32:17;;;;;;;1.73;0.60;;;20.10;99.90;;;;;;5054321;28;20083;-73
2023/07/12 12:34:50;;;;;;;1.40;0.55;;;20.00;99.90;;;;;;5053651;28;20375;-73
2023/07/12 12:37:29;;;;;;;2.13;0.75;;;20.00;99.90;;;;;;5054076;28;20056;-73
2023/07/12 12:39:57;;;;;;;2.22;0.77;;;20.00;99.90;;;;;;5051502;28;20095;-73
2023/07/12 12:42:27;;;;;;;2.60;0.70;;;20.00;99.90;;;;;;5052239;28;20430;-72
2023/07/12 12:44:55;;;;;;;1.48;0.47;;;20.00;99.90;;;;;;5053568;28;20021;-72
2023/07/12 12:47:26;;;;;;;2.13;0.70;;;20.20;99.90;;;;;;5054088;28;20160;-73
2023/07/12 12:49:52;;;;;;;5.10;0.70;;;20.40;99.90;;;;;;5053168;28;20115;-72
2023/07/12 12:52:29;;;;;;;4.60;1.08;;;20.40;99.90;;;;;;5053392;28;20025;-71
2023/07/12 12:55:00;;;;;;;2.50;0.70;;;20.50;99.90;;;;;;5053314;28;20029;-73
2023/07/12 12:57:30;;;;;;;1.75;0.85;;;20.50;99.90;;;;;;5052829;28;20057;-73